sensor_id;sensor_type;location;lat;lon;timestamp;temperature;humidity
20358;DHT22;75325;47.812;13.026;2024-02-15T00:01:16;14.20;51.40
20358;DHT22;75325;47.812;13.026;2024-02-15T00:03:45;14.30;50.60
20358;DHT22;75325;47.812;13.026;2024-02-15T00:06:15;14.40;50.50
20358;DHT22;75325;47.812;13.026;2024-02-15T00:08:44;14.40;50.40
20358;DHT22;75325;47.812;13.026;2024-02-15T00:11:13;14.40;50.30
20358;DHT22;75325;47.812;13.026;2024-02-15T00:13:42;14.50;50.60
20358;DHT22;75325;47.812;13.026;2024-02-15T00:16:13;14.50;50.30
20358;DHT22;75325;47.812;13.026;2024-02-15T00:18:42;14.50;50.30
20358;DHT22;75325;47.812;13.026;2024-02-15T00:21:10;14.30;50.20
20358;DHT22;75325;47.812;13.026;2024-02-15T00:23:40;14.10;50.40
20358;DHT22;75325;47.812;13.026;2024-02-15T00:26:09;14.00;50.70
20358;DHT22;75325;47.812;13.026;2024-02-15T00:28:42;13.90;50.90
20358;DHT22;75325;47.812;13.026;2024-02-15T00:31:10;13.80;51.10
20358;DHT22;75325;47.812;13.026;2024-02-15T00:33:38;13.80;51.00
20358;DHT22;75325;47.812;13.026;2024-02-15T00:36:09;13.80;51.00
20358;DHT22;75325;47.812;13.026;2024-02-15T00:38:37;13.90;51.00
20358;DHT22;75325;47.812;13.026;2024-02-15T00:41:06;13.90;50.90
20358;DHT22;75325;47.812;13.026;2024-02-15T00:43:34;14.00;51.00
20358;DHT22;75325;47.812;13.026;2024-02-15T00:46:04;14.00;50.90
20358;DHT22;75325;47.812;13.026;2024-02-15T00:48:33;14.10;50.80
20358;DHT22;75325;47.812;13.026;2024-02-15T00:51:01;14.10;51.00
20358;DHT22;75325;47.812;13.026;2024-02-15T00:53:30;14.10;50.80
20358;DHT22;75325;47.812;13.026;2024-02-15T00:55:59;14.20;50.90
20358;DHT22;75325;47.812;13.026;2024-02-15T00:58:27;14.20;50.80
20358;DHT22;75325;47.812;13.026;2024-02-15T01:00:55;14.20;50.80
20358;DHT22;75325;47.812;13.026;2024-02-15T01:03:25;14.10;50.80
20358;DHT22;75325;47.812;13.026;2024-02-15T01:05:53;14.00;50.90
20358;DHT22;75325;47.812;13.026;2024-02-15T01:08:21;13.80;51.00
20358;DHT22;75325;47.812;13.026;2024-02-15T01:10:50;13.80;51.20
20358;DHT22;75325;47.812;13.026;2024-02-15T01:13:19;13.70;51.20
20358;DHT22;75325;47.812;13.026;2024-02-15T01:15:47;13.70;51.20
20358;DHT22;75325;47.812;13.026;2024-02-15T01:18:16;13.70;51.20
20358;DHT22;75325;47.812;13.026;2024-02-15T01:20:46;13.80;51.10
20358;DHT22;75325;47.812;13.026;2024-02-15T01:23:15;13.90;51.20
20358;DHT22;75325;47.812;13.026;2024-02-15T01:25:43;13.90;51.10
20358;DHT22;75325;47.812;13.026;2024-02-15T01:28:12;14.00;51.20
20358;DHT22;75325;47.812;13.026;2024-02-15T01:30:40;14.00;51.00
20358;DHT22;75325;47.812;13.026;2024-02-15T01:33:10;14.00;50.90
20358;DHT22;75325;47.812;13.026;2024-02-15T01:35:39;14.10;51.00
20358;DHT22;75325;47.812;13.026;2024-02-15T01:38:08;14.10;50.90
20358;DHT22;75325;47.812;13.026;2024-02-15T01:40:38;14.10;50.80
20358;DHT22;75325;47.812;13.026;2024-02-15T01:43:06;14.10;50.80
20358;DHT22;75325;47.812;13.026;2024-02-15T01:45:34;14.10;50.80
20358;DHT22;75325;47.812;13.026;2024-02-15T01:48:03;14.10;51.10
20358;DHT22;75325;47.812;13.026;2024-02-15T01:50:32;14.10;50.90
20358;DHT22;75325;47.812;13.026;2024-02-15T01:53:02;14.10;50.90
20358;DHT22;75325;47.812;13.026;2024-02-15T01:55:33;14.10;50.90
20358;DHT22;75325;47.812;13.026;2024-02-15T01:58:02;14.20;51.00
20358;DHT22;75325;47.812;13.026;2024-02-15T02:00:31;14.20;50.90
20358;DHT22;75325;47.812;13.026;2024-02-15T02:02:59;14.20;50.80
20358;DHT22;75325;47.812;13.026;2024-02-15T02:05:30;14.20;50.70
20358;DHT22;75325;47.812;13.026;2024-02-15T02:07:59;14.10;50.70
20358;DHT22;75325;47.812;13.026;2024-02-15T02:10:31;14.10;50.80
20358;DHT22;75325;47.812;13.026;2024-02-15T02:13:01;14.00;50.90
20358;DHT22;75325;47.812;13.026;2024-02-15T02:15:31;14.00;50.90
20358;DHT22;75325;47.812;13.026;2024-02-15T02:18:00;14.00;50.90
20358;DHT22;75325;47.812;13.026;2024-02-15T02:20:29;14.00;50.90
20358;DHT22;75325;47.812;13.026;2024-02-15T02:22:59;14.00;50.90
20358;DHT22;75325;47.812;13.026;2024-02-15T02:25:36;14.00;50.90
20358;DHT22;75325;47.812;13.026;2024-02-15T02:28:05;14.00;50.90
20358;DHT22;75325;47.812;13.026;2024-02-15T02:30:34;13.90;50.90
20358;DHT22;75325;47.812;13.026;2024-02-15T02:33:02;13.90;50.90
20358;DHT22;75325;47.812;13.026;2024-02-15T02:35:34;13.80;51.00
20358;DHT22;75325;47.812;13.026;2024-02-15T02:38:03;13.80;51.10
20358;DHT22;75325;47.812;13.026;2024-02-15T02:40:32;13.80;51.10
20358;DHT22;75325;47.812;13.026;2024-02-15T02:43:02;13.80;51.10
20358;DHT22;75325;47.812;13.026;2024-02-15T02:45:31;13.80;51.20
20358;DHT22;75325;47.812;13.026;2024-02-15T02:47:59;13.80;51.20
20358;DHT22;75325;47.812;13.026;2024-02-15T02:50:27;13.80;51.20
20358;DHT22;75325;47.812;13.026;2024-02-15T02:52:56;13.70;51.10
20358;DHT22;75325;47.812;13.026;2024-02-15T02:55:24;13.70;51.10
20358;DHT22;75325;47.812;13.026;2024-02-15T02:57:54;13.70;51.20
20358;DHT22;75325;47.812;13.026;2024-02-15T03:00:24;13.60;51.20
20358;DHT22;75325;47.812;13.026;2024-02-15T03:02:54;13.60;51.20
20358;DHT22;75325;47.812;13.026;2024-02-15T03:05:24;13.60;51.30
20358;DHT22;75325;47.812;13.026;2024-02-15T03:07:52;13.50;51.30
20358;DHT22;75325;47.812;13.026;2024-02-15T03:10:20;13.50;51.30
20358;DHT22;75325;47.812;13.026;2024-02-15T03:12:48;13.50;52.00
20358;DHT22;75325;47.812;13.026;2024-02-15T03:15:16;13.50;51.30
20358;DHT22;75325;47.812;13.026;2024-02-15T03:17:47;13.50;51.30
20358;DHT22;75325;47.812;13.026;2024-02-15T03:20:16;13.50;51.20
20358;DHT22;75325;47.812;13.026;2024-02-15T03:22:52;13.40;51.10
20358;DHT22;75325;47.812;13.026;2024-02-15T03:25:21;13.40;51.20
20358;DHT22;75325;47.812;13.026;2024-02-15T03:27:51;13.30;51.20
20358;DHT22;75325;47.812;13.026;2024-02-15T03:30:20;13.30;51.30
20358;DHT22;75325;47.812;13.026;2024-02-15T03:32:50;13.30;51.30
20358;DHT22;75325;47.812;13.026;2024-02-15T03:35:19;13.30;51.30
20358;DHT22;75325;47.812;13.026;2024-02-15T03:37:49;13.30;51.50
20358;DHT22;75325;47.812;13.026;2024-02-15T03:40:19;13.20;51.50
20358;DHT22;75325;47.812;13.026;2024-02-15T03:42:47;13.20;51.50
20358;DHT22;75325;47.812;13.026;2024-02-15T03:45:17;13.30;51.50
20358;DHT22;75325;47.812;13.026;2024-02-15T03:47:46;13.30;51.50
20358;DHT22;75325;47.812;13.026;2024-02-15T03:50:15;13.40;51.30
20358;DHT22;75325;47.812;13.026;2024-02-15T03:52:45;13.30;51.30
20358;DHT22;75325;47.812;13.026;2024-02-15T03:55:14;13.30;51.30
20358;DHT22;75325;47.812;13.026;2024-02-15T03:57:42;13.30;51.30
20358;DHT22;75325;47.812;13.026;2024-02-15T04:00:13;13.30;51.30
20358;DHT22;75325;47.812;13.026;2024-02-15T04:02:42;13.30;51.30
20358;DHT22;75325;47.812;13.026;2024-02-15T04:05:11;13.40;51.30
20358;DHT22;75325;47.812;13.026;2024-02-15T04:07:41;13.40;51.20
20358;DHT22;75325;47.812;13.026;2024-02-15T04:10:10;13.40;51.20
20358;DHT22;75325;47.812;13.026;2024-02-15T04:12:39;13.30;51.20
20358;DHT22;75325;47.812;13.026;2024-02-15T04:15:09;13.30;51.30
20358;DHT22;75325;47.812;13.026;2024-02-15T04:17:41;13.30;51.30
20358;DHT22;75325;47.812;13.026;2024-02-15T04:20:11;13.20;51.30
20358;DHT22;75325;47.812;13.026;2024-02-15T04:22:42;13.30;51.30
20358;DHT22;75325;47.812;13.026;2024-02-15T04:25:11;13.40;51.30
20358;DHT22;75325;47.812;13.026;2024-02-15T04:27:44;13.40;51.50
20358;DHT22;75325;47.812;13.026;2024-02-15T04:30:13;13.40;51.30
20358;DHT22;75325;47.812;13.026;2024-02-15T04:32:43;13.50;51.40
20358;DHT22;75325;47.812;13.026;2024-02-15T04:35:11;13.50;51.30
20358;DHT22;75325;47.812;13.026;2024-02-15T04:37:42;13.60;51.30
20358;DHT22;75325;47.812;13.026;2024-02-15T04:40:11;13.60;51.40
20358;DHT22;75325;47.812;13.026;2024-02-15T04:42:41;13.70;51.30
20358;DHT22;75325;47.812;13.026;2024-02-15T04:45:12;13.70;51.30
20358;DHT22;75325;47.812;13.026;2024-02-15T04:47:43;13.80;51.30
20358;DHT22;75325;47.812;13.026;2024-02-15T04:50:13;13.90;51.20
20358;DHT22;75325;47.812;13.026;2024-02-15T04:52:46;13.90;51.10
20358;DHT22;75325;47.812;13.026;2024-02-15T04:55:17;13.90;51.10
20358;DHT22;75325;47.812;13.026;2024-02-15T04:57:45;13.90;51.10
20358;DHT22;75325;47.812;13.026;2024-02-15T05:00:16;14.00;51.10
20358;DHT22;75325;47.812;13.026;2024-02-15T05:02:48;14.00;51.10
20358;DHT22;75325;47.812;13.026;2024-02-15T05:05:16;14.00;51.00
20358;DHT22;75325;47.812;13.026;2024-02-15T05:07:47;13.90;50.90
20358;DHT22;75325;47.812;13.026;2024-02-15T05:10:16;14.00;51.10
20358;DHT22;75325;47.812;13.026;2024-02-15T05:12:44;13.90;51.00
20358;DHT22;75325;47.812;13.026;2024-02-15T05:15:15;13.90;51.00
20358;DHT22;75325;47.812;13.026;2024-02-15T05:17:45;14.00;51.00
20358;DHT22;75325;47.812;13.026;2024-02-15T05:20:15;14.00;51.20
20358;DHT22;75325;47.812;13.026;2024-02-15T05:22:43;14.10;51.00
20358;DHT22;75325;47.812;13.026;2024-02-15T05:25:18;14.10;50.90
20358;DHT22;75325;47.812;13.026;2024-02-15T05:27:52;14.10;50.90
20358;DHT22;75325;47.812;13.026;2024-02-15T05:30:23;14.00;50.80
20358;DHT22;75325;47.812;13.026;2024-02-15T05:32:52;14.00;50.80
20358;DHT22;75325;47.812;13.026;2024-02-15T05:35:22;14.00;50.90
20358;DHT22;75325;47.812;13.026;2024-02-15T05:37:51;13.90;50.90
20358;DHT22;75325;47.812;13.026;2024-02-15T05:40:22;13.90;50.90
20358;DHT22;75325;47.812;13.026;2024-02-15T05:42:54;13.80;51.00
20358;DHT22;75325;47.812;13.026;2024-02-15T05:45:29;13.80;51.00
20358;DHT22;75325;47.812;13.026;2024-02-15T05:48:00;13.80;51.00
20358;DHT22;75325;47.812;13.026;2024-02-15T05:50:28;13.80;51.10
20358;DHT22;75325;47.812;13.026;2024-02-15T05:52:58;13.80;51.00
20358;DHT22;75325;47.812;13.026;2024-02-15T05:55:30;13.80;51.10
20358;DHT22;75325;47.812;13.026;2024-02-15T05:58:02;13.90;51.10
20358;DHT22;75325;47.812;13.026;2024-02-15T06:00:30;13.90;51.10
20358;DHT22;75325;47.812;13.026;2024-02-15T06:03:00;14.00;51.10
20358;DHT22;75325;47.812;13.026;2024-02-15T06:05:30;14.00;51.00
20358;DHT22;75325;47.812;13.026;2024-02-15T06:07:59;14.00;51.00
20358;DHT22;75325;47.812;13.026;2024-02-15T06:10:27;14.00;51.00
20358;DHT22;75325;47.812;13.026;2024-02-15T06:12:58;14.00;51.10
20358;DHT22;75325;47.812;13.026;2024-02-15T06:15:27;14.00;51.20
20358;DHT22;75325;47.812;13.026;2024-02-15T06:17:55;14.00;51.10
20358;DHT22;75325;47.812;13.026;2024-02-15T06:20:24;14.10;51.00
20358;DHT22;75325;47.812;13.026;2024-02-15T06:22:56;14.10;51.00
20358;DHT22;75325;47.812;13.026;2024-02-15T06:25:24;14.10;50.90
20358;DHT22;75325;47.812;13.026;2024-02-15T06:27:52;14.10;50.90
20358;DHT22;75325;47.812;13.026;2024-02-15T06:30:27;14.00;50.80
20358;DHT22;75325;47.812;13.026;2024-02-15T06:33:12;14.00;50.90
20358;DHT22;75325;47.812;13.026;2024-02-15T06:36:04;14.00;51.00
20358;DHT22;75325;47.812;13.026;2024-02-15T06:38:50;14.00;51.10
20358;DHT22;75325;47.812;13.026;2024-02-15T06:41:47;14.00;51.10
20358;DHT22;75325;47.812;13.026;2024-02-15T06:44:15;14.00;51.20
20358;DHT22;75325;47.812;13.026;2024-02-15T06:46:45;14.00;51.20
20358;DHT22;75325;47.812;13.026;2024-02-15T06:49:13;14.10;51.50
20358;DHT22;75325;47.812;13.026;2024-02-15T06:51:41;14.10;51.00
20358;DHT22;75325;47.812;13.026;2024-02-15T06:54:14;14.20;51.10
20358;DHT22;75325;47.812;13.026;2024-02-15T06:56:42;14.20;51.10
20358;DHT22;75325;47.812;13.026;2024-02-15T06:59:11;14.30;51.00
20358;DHT22;75325;47.812;13.026;2024-02-15T07:01:41;14.30;50.90
20358;DHT22;75325;47.812;13.026;2024-02-15T07:04:11;14.40;51.00
20358;DHT22;75325;47.812;13.026;2024-02-15T07:06:39;14.40;51.00
20358;DHT22;75325;47.812;13.026;2024-02-15T07:09:11;14.50;51.00
20358;DHT22;75325;47.812;13.026;2024-02-15T07:11:41;14.60;51.00
20358;DHT22;75325;47.812;13.026;2024-02-15T07:14:13;14.70;50.90
20358;DHT22;75325;47.812;13.026;2024-02-15T07:16:44;14.70;50.80
20358;DHT22;75325;47.812;13.026;2024-02-15T07:19:13;14.80;50.80
20358;DHT22;75325;47.812;13.026;2024-02-15T07:21:42;14.80;50.80
20358;DHT22;75325;47.812;13.026;2024-02-15T07:24:10;14.80;50.80
20358;DHT22;75325;47.812;13.026;2024-02-15T07:26:39;14.80;50.80
20358;DHT22;75325;47.812;13.026;2024-02-15T07:29:07;14.90;51.00
20358;DHT22;75325;47.812;13.026;2024-02-15T07:31:36;15.00;50.90
20358;DHT22;75325;47.812;13.026;2024-02-15T07:34:05;15.10;50.90
20358;DHT22;75325;47.812;13.026;2024-02-15T07:36:37;15.20;50.80
20358;DHT22;75325;47.812;13.026;2024-02-15T07:39:08;15.30;50.70
20358;DHT22;75325;47.812;13.026;2024-02-15T07:41:41;15.30;50.60
20358;DHT22;75325;47.812;13.026;2024-02-15T07:44:09;15.30;50.40
20358;DHT22;75325;47.812;13.026;2024-02-15T07:46:38;15.20;50.60
20358;DHT22;75325;47.812;13.026;2024-02-15T07:49:07;15.20;50.70
20358;DHT22;75325;47.812;13.026;2024-02-15T07:51:36;15.30;50.70
20358;DHT22;75325;47.812;13.026;2024-02-15T07:54:04;15.40;50.90
20358;DHT22;75325;47.812;13.026;2024-02-15T07:56:33;15.60;50.80
20358;DHT22;75325;47.812;13.026;2024-02-15T07:59:02;15.80;50.70
20358;DHT22;75325;47.812;13.026;2024-02-15T08:01:30;16.00;50.80
20358;DHT22;75325;47.812;13.026;2024-02-15T08:03:59;16.20;50.60
20358;DHT22;75325;47.812;13.026;2024-02-15T08:06:27;16.30;50.30
20358;DHT22;75325;47.812;13.026;2024-02-15T08:09:00;16.40;50.30
20358;DHT22;75325;47.812;13.026;2024-02-15T08:11:30;16.50;50.30
20358;DHT22;75325;47.812;13.026;2024-02-15T08:13:58;16.70;50.30
20358;DHT22;75325;47.812;13.026;2024-02-15T08:16:26;16.80;50.10
20358;DHT22;75325;47.812;13.026;2024-02-15T08:18:55;16.80;49.80
20358;DHT22;75325;47.812;13.026;2024-02-15T08:21:27;16.80;49.80
20358;DHT22;75325;47.812;13.026;2024-02-15T08:23:56;16.90;49.90
20358;DHT22;75325;47.812;13.026;2024-02-15T08:26:27;17.00;50.00
20358;DHT22;75325;47.812;13.026;2024-02-15T08:28:56;17.20;50.20
20358;DHT22;75325;47.812;13.026;2024-02-15T08:31:24;17.20;49.70
20358;DHT22;75325;47.812;13.026;2024-02-15T08:33:53;17.20;49.80
20358;DHT22;75325;47.812;13.026;2024-02-15T08:36:21;17.50;50.50
20358;DHT22;75325;47.812;13.026;2024-02-15T08:38:49;18.10;50.70
20358;DHT22;75325;47.812;13.026;2024-02-15T08:41:17;18.50;49.80
20358;DHT22;75325;47.812;13.026;2024-02-15T08:43:49;18.70;49.40
20358;DHT22;75325;47.812;13.026;2024-02-15T08:46:17;19.00;49.50
20358;DHT22;75325;47.812;13.026;2024-02-15T08:48:45;19.50;49.60
20358;DHT22;75325;47.812;13.026;2024-02-15T08:51:14;20.10;49.70
20358;DHT22;75325;47.812;13.026;2024-02-15T08:53:43;20.60;48.80
20358;DHT22;75325;47.812;13.026;2024-02-15T08:56:12;20.80;48.20
20358;DHT22;75325;47.812;13.026;2024-02-15T08:58:40;20.80;48.00
20358;DHT22;75325;47.812;13.026;2024-02-15T09:01:10;21.00;48.00
20358;DHT22;75325;47.812;13.026;2024-02-15T09:03:41;21.30;47.60
20358;DHT22;75325;47.812;13.026;2024-02-15T09:06:12;21.60;47.50
20358;DHT22;75325;47.812;13.026;2024-02-15T09:08:40;22.20;47.40
20358;DHT22;75325;47.812;13.026;2024-02-15T09:11:09;22.80;47.30
20358;DHT22;75325;47.812;13.026;2024-02-15T09:13:39;23.10;46.80
20358;DHT22;75325;47.812;13.026;2024-02-15T09:16:10;23.40;46.40
20358;DHT22;75325;47.812;13.026;2024-02-15T09:18:39;23.50;46.30
20358;DHT22;75325;47.812;13.026;2024-02-15T09:21:12;23.60;46.30
20358;DHT22;75325;47.812;13.026;2024-02-15T09:23:41;23.90;45.90
20358;DHT22;75325;47.812;13.026;2024-02-15T09:26:09;24.20;46.00
20358;DHT22;75325;47.812;13.026;2024-02-15T09:28:39;24.70;45.70
20358;DHT22;75325;47.812;13.026;2024-02-15T09:31:07;25.20;45.50
20358;DHT22;75325;47.812;13.026;2024-02-15T09:33:40;25.80;45.60
20358;DHT22;75325;47.812;13.026;2024-02-15T09:36:08;26.50;45.50
20358;DHT22;75325;47.812;13.026;2024-02-15T09:38:37;26.90;44.90
20358;DHT22;75325;47.812;13.026;2024-02-15T09:41:05;27.20;44.50
20358;DHT22;75325;47.812;13.026;2024-02-15T09:43:34;27.50;44.20
20358;DHT22;75325;47.812;13.026;2024-02-15T09:46:03;27.60;43.80
20358;DHT22;75325;47.812;13.026;2024-02-15T09:48:31;27.60;43.60
20358;DHT22;75325;47.812;13.026;2024-02-15T09:51:01;27.70;43.80
20358;DHT22;75325;47.812;13.026;2024-02-15T09:53:30;28.00;44.10
20358;DHT22;75325;47.812;13.026;2024-02-15T09:55:58;28.30;43.40
20358;DHT22;75325;47.812;13.026;2024-02-15T09:58:31;28.30;43.10
20358;DHT22;75325;47.812;13.026;2024-02-15T10:01:01;28.30;43.40
20358;DHT22;75325;47.812;13.026;2024-02-15T10:03:33;28.40;43.20
20358;DHT22;75325;47.812;13.026;2024-02-15T10:06:03;28.40;43.10
20358;DHT22;75325;47.812;13.026;2024-02-15T10:08:33;28.40;43.10
20358;DHT22;75325;47.812;13.026;2024-02-15T10:11:07;28.50;43.40
20358;DHT22;75325;47.812;13.026;2024-02-15T10:13:37;28.70;43.30
20358;DHT22;75325;47.812;13.026;2024-02-15T10:16:15;29.10;43.50
20358;DHT22;75325;47.812;13.026;2024-02-15T10:18:45;29.30;42.80
20358;DHT22;75325;47.812;13.026;2024-02-15T10:21:26;29.40;42.70
20358;DHT22;75325;47.812;13.026;2024-02-15T10:24:04;29.50;42.80
20358;DHT22;75325;47.812;13.026;2024-02-15T10:26:34;29.60;42.70
20358;DHT22;75325;47.812;13.026;2024-02-15T10:29:07;29.70;42.50
20358;DHT22;75325;47.812;13.026;2024-02-15T10:31:37;29.80;42.30
20358;DHT22;75325;47.812;13.026;2024-02-15T10:34:07;30.10;42.50
20358;DHT22;75325;47.812;13.026;2024-02-15T10:36:37;30.40;42.60
20358;DHT22;75325;47.812;13.026;2024-02-15T10:39:12;30.80;42.20
20358;DHT22;75325;47.812;13.026;2024-02-15T10:41:45;30.90;41.60
20358;DHT22;75325;47.812;13.026;2024-02-15T10:44:15;31.00;41.60
20358;DHT22;75325;47.812;13.026;2024-02-15T10:46:46;30.90;41.40
20358;DHT22;75325;47.812;13.026;2024-02-15T10:49:19;31.00;41.00
20358;DHT22;75325;47.812;13.026;2024-02-15T10:51:51;30.70;40.60
20358;DHT22;75325;47.812;13.026;2024-02-15T10:54:33;30.70;41.00
20358;DHT22;75325;47.812;13.026;2024-02-15T10:57:05;30.70;41.10
20358;DHT22;75325;47.812;13.026;2024-02-15T10:59:34;30.60;40.70
20358;DHT22;75325;47.812;13.026;2024-02-15T11:02:10;30.30;40.90
20358;DHT22;75325;47.812;13.026;2024-02-15T11:04:45;30.10;41.00
20358;DHT22;75325;47.812;13.026;2024-02-15T11:07:17;30.10;41.20
20358;DHT22;75325;47.812;13.026;2024-02-15T11:09:51;29.90;41.00
20358;DHT22;75325;47.812;13.026;2024-02-15T11:12:19;29.60;40.60
20358;DHT22;75325;47.812;13.026;2024-02-15T11:14:47;29.10;41.00
20358;DHT22;75325;47.812;13.026;2024-02-15T11:19:59;28.80;41.80
20358;DHT22;75325;47.812;13.026;2024-02-15T11:22:28;28.80;42.00
20358;DHT22;75325;47.812;13.026;2024-02-15T11:24:56;28.70;41.80
20358;DHT22;75325;47.812;13.026;2024-02-15T11:27:28;28.40;42.00
20358;DHT22;75325;47.812;13.026;2024-02-15T11:29:56;28.00;42.30
20358;DHT22;75325;47.812;13.026;2024-02-15T11:32:34;27.50;42.30
20358;DHT22;75325;47.812;13.026;2024-02-15T11:35:04;26.60;42.60
20358;DHT22;75325;47.812;13.026;2024-02-15T11:37:53;25.70;43.00
20358;DHT22;75325;47.812;13.026;2024-02-15T11:40:23;24.90;43.70
20358;DHT22;75325;47.812;13.026;2024-02-15T11:42:52;24.30;44.60
20358;DHT22;75325;47.812;13.026;2024-02-15T11:45:21;23.80;45.00
20358;DHT22;75325;47.812;13.026;2024-02-15T11:47:50;23.30;45.30
20358;DHT22;75325;47.812;13.026;2024-02-15T11:50:19;22.90;45.80
20358;DHT22;75325;47.812;13.026;2024-02-15T11:52:48;22.70;46.30
20358;DHT22;75325;47.812;13.026;2024-02-15T11:55:21;22.40;46.40
20358;DHT22;75325;47.812;13.026;2024-02-15T11:57:56;22.20;46.60
20358;DHT22;75325;47.812;13.026;2024-02-15T12:00:30;22.00;46.90
20358;DHT22;75325;47.812;13.026;2024-02-15T12:03:16;21.90;47.10
20358;DHT22;75325;47.812;13.026;2024-02-15T12:06:02;21.80;47.50
20358;DHT22;75325;47.812;13.026;2024-02-15T12:08:48;21.70;47.30
20358;DHT22;75325;47.812;13.026;2024-02-15T12:11:36;21.70;47.40
20358;DHT22;75325;47.812;13.026;2024-02-15T12:14:22;21.70;47.50
20358;DHT22;75325;47.812;13.026;2024-02-15T12:17:08;21.60;47.40
20358;DHT22;75325;47.812;13.026;2024-02-15T12:19:55;21.50;47.30
20358;DHT22;75325;47.812;13.026;2024-02-15T12:22:24;21.40;47.50
20358;DHT22;75325;47.812;13.026;2024-02-15T12:24:54;21.30;47.50
20358;DHT22;75325;47.812;13.026;2024-02-15T12:27:24;21.20;47.50
20358;DHT22;75325;47.812;13.026;2024-02-15T12:29:55;21.20;47.60
20358;DHT22;75325;47.812;13.026;2024-02-15T12:32:25;21.20;47.60
20358;DHT22;75325;47.812;13.026;2024-02-15T12:35:01;21.20;47.70
20358;DHT22;75325;47.812;13.026;2024-02-15T12:37:37;21.20;47.70
20358;DHT22;75325;47.812;13.026;2024-02-15T12:40:11;21.20;48.30
20358;DHT22;75325;47.812;13.026;2024-02-15T12:42:44;21.20;47.70
20358;DHT22;75325;47.812;13.026;2024-02-15T12:45:15;21.10;47.60
20358;DHT22;75325;47.812;13.026;2024-02-15T12:47:44;21.10;47.80
20358;DHT22;75325;47.812;13.026;2024-02-15T12:50:17;21.10;47.90
20358;DHT22;75325;47.812;13.026;2024-02-15T12:52:46;21.20;48.00
20358;DHT22;75325;47.812;13.026;2024-02-15T12:55:16;21.20;48.00
20358;DHT22;75325;47.812;13.026;2024-02-15T12:57:48;21.30;48.00
20358;DHT22;75325;47.812;13.026;2024-02-15T13:00:19;21.40;48.00
20358;DHT22;75325;47.812;13.026;2024-02-15T13:02:49;21.50;48.00
20358;DHT22;75325;47.812;13.026;2024-02-15T13:05:18;21.60;47.70
20358;DHT22;75325;47.812;13.026;2024-02-15T13:07:47;21.70;47.80
20358;DHT22;75325;47.812;13.026;2024-02-15T13:10:17;21.80;47.80
20358;DHT22;75325;47.812;13.026;2024-02-15T13:12:46;21.90;47.80
20358;DHT22;75325;47.812;13.026;2024-02-15T13:15:15;22.10;47.90
20358;DHT22;75325;47.812;13.026;2024-02-15T13:17:45;22.20;47.70
20358;DHT22;75325;47.812;13.026;2024-02-15T13:20:16;22.30;47.90
20358;DHT22;75325;47.812;13.026;2024-02-15T13:22:47;22.40;47.60
20358;DHT22;75325;47.812;13.026;2024-02-15T13:25:15;22.40;47.50
20358;DHT22;75325;47.812;13.026;2024-02-15T13:27:44;22.50;47.50
20358;DHT22;75325;47.812;13.026;2024-02-15T13:30:13;22.50;47.50
20358;DHT22;75325;47.812;13.026;2024-02-15T13:32:43;22.50;47.30
20358;DHT22;75325;47.812;13.026;2024-02-15T13:35:12;22.50;47.40
20358;DHT22;75325;47.812;13.026;2024-02-15T13:37:41;22.60;47.50
20358;DHT22;75325;47.812;13.026;2024-02-15T13:40:14;22.70;47.40
20358;DHT22;75325;47.812;13.026;2024-02-15T13:42:43;22.70;47.40
20358;DHT22;75325;47.812;13.026;2024-02-15T13:45:23;22.80;47.40
20358;DHT22;75325;47.812;13.026;2024-02-15T13:47:54;23.00;47.60
20358;DHT22;75325;47.812;13.026;2024-02-15T13:50:27;23.00;47.40
20358;DHT22;75325;47.812;13.026;2024-02-15T13:52:59;23.10;47.40
20358;DHT22;75325;47.812;13.026;2024-02-15T13:55:30;23.20;47.40
20358;DHT22;75325;47.812;13.026;2024-02-15T13:58:03;23.20;47.30
20358;DHT22;75325;47.812;13.026;2024-02-15T14:00:31;23.20;47.30
20358;DHT22;75325;47.812;13.026;2024-02-15T14:03:03;23.20;47.30
20358;DHT22;75325;47.812;13.026;2024-02-15T14:05:34;23.30;47.90
20358;DHT22;75325;47.812;13.026;2024-02-15T14:08:02;23.30;47.00
20358;DHT22;75325;47.812;13.026;2024-02-15T14:10:32;23.20;47.10
20358;DHT22;75325;47.812;13.026;2024-02-15T14:13:02;23.20;47.20
20358;DHT22;75325;47.812;13.026;2024-02-15T14:15:32;23.10;47.20
20358;DHT22;75325;47.812;13.026;2024-02-15T14:18:05;23.00;47.20
20358;DHT22;75325;47.812;13.026;2024-02-15T14:20:35;22.90;47.20
20358;DHT22;75325;47.812;13.026;2024-02-15T14:23:03;22.80;47.20
20358;DHT22;75325;47.812;13.026;2024-02-15T14:25:33;22.70;47.20
20358;DHT22;75325;47.812;13.026;2024-02-15T14:28:02;22.60;47.30
20358;DHT22;75325;47.812;13.026;2024-02-15T14:30:32;22.50;47.30
20358;DHT22;75325;47.812;13.026;2024-02-15T14:33:20;22.40;47.30
20358;DHT22;75325;47.812;13.026;2024-02-15T14:35:51;22.30;47.40
20358;DHT22;75325;47.812;13.026;2024-02-15T14:38:20;22.10;47.80
20358;DHT22;75325;47.812;13.026;2024-02-15T14:40:49;22.10;47.60
20358;DHT22;75325;47.812;13.026;2024-02-15T14:43:21;22.00;47.60
20358;DHT22;75325;47.812;13.026;2024-02-15T14:45:49;21.90;47.60
20358;DHT22;75325;47.812;13.026;2024-02-15T14:48:20;21.80;47.60
20358;DHT22;75325;47.812;13.026;2024-02-15T14:50:48;21.70;47.60
20358;DHT22;75325;47.812;13.026;2024-02-15T14:53:18;21.70;47.70
20358;DHT22;75325;47.812;13.026;2024-02-15T14:55:47;21.60;47.70
20358;DHT22;75325;47.812;13.026;2024-02-15T14:58:16;21.50;47.70
20358;DHT22;75325;47.812;13.026;2024-02-15T15:00:45;21.40;47.90
20358;DHT22;75325;47.812;13.026;2024-02-15T15:03:15;21.40;47.90
20358;DHT22;75325;47.812;13.026;2024-02-15T15:05:46;21.40;47.90
20358;DHT22;75325;47.812;13.026;2024-02-15T15:08:32;21.30;47.90
20358;DHT22;75325;47.812;13.026;2024-02-15T15:11:18;21.20;47.90
20358;DHT22;75325;47.812;13.026;2024-02-15T15:14:18;21.20;48.00
20358;DHT22;75325;47.812;13.026;2024-02-15T15:16:48;21.00;48.00
20358;DHT22;75325;47.812;13.026;2024-02-15T15:19:16;21.00;48.10
20358;DHT22;75325;47.812;13.026;2024-02-15T15:21:46;20.90;48.10
20358;DHT22;75325;47.812;13.026;2024-02-15T15:24:15;20.90;48.10
20358;DHT22;75325;47.812;13.026;2024-02-15T15:26:44;20.80;48.10
20358;DHT22;75325;47.812;13.026;2024-02-15T15:29:12;20.80;48.10
20358;DHT22;75325;47.812;13.026;2024-02-15T15:31:41;20.70;48.10
20358;DHT22;75325;47.812;13.026;2024-02-15T15:34:09;20.70;48.10
20358;DHT22;75325;47.812;13.026;2024-02-15T15:36:38;20.60;48.00
20358;DHT22;75325;47.812;13.026;2024-02-15T15:39:07;20.50;48.00